sensor_id;sensor_type;location;lat;lon;timestamp;temperature;humidity
80579;SHT31;69939;52.402;6.608;2023-05-29T00:00:21;9.86;86.77
80579;SHT31;69939;52.402;6.608;2023-05-29T00:02:50;9.85;86.83
80579;SHT31;69939;52.402;6.608;2023-05-29T00:05:17;9.78;87.19
80579;SHT31;69939;52.402;6.608;2023-05-29T00:07:45;9.74;87.54
80579;SHT31;69939;52.402;6.608;2023-05-29T00:10:14;9.77;87.09
80579;SHT31;69939;52.402;6.608;2023-05-29T00:12:41;9.78;87.00
80579;SHT31;69939;52.402;6.608;2023-05-29T00:15:09;9.73;87.20
80579;SHT31;69939;52.402;6.608;2023-05-29T00:17:37;9.74;87.06
80579;SHT31;69939;52.402;6.608;2023-05-29T00:20:07;9.68;87.33
80579;SHT31;69939;52.402;6.608;2023-05-29T00:22:36;9.62;87.59
80579;SHT31;69939;52.402;6.608;2023-05-29T00:25:03;9.65;87.60
80579;SHT31;69939;52.402;6.608;2023-05-29T00:27:31;9.61;87.69
80579;SHT31;69939;52.402;6.608;2023-05-29T00:29:58;9.57;87.89
80579;SHT31;69939;52.402;6.608;2023-05-29T00:32:25;9.57;87.84
80579;SHT31;69939;52.402;6.608;2023-05-29T00:34:52;9.58;87.86
80579;SHT31;69939;52.402;6.608;2023-05-29T00:37:20;9.52;88.07
80579;SHT31;69939;52.402;6.608;2023-05-29T00:39:47;9.51;88.08
80579;SHT31;69939;52.402;6.608;2023-05-29T00:42:17;9.47;88.30
80579;SHT31;69939;52.402;6.608;2023-05-29T00:44:46;9.41;88.42
80579;SHT31;69939;52.402;6.608;2023-05-29T00:47:13;9.43;88.57
80579;SHT31;69939;52.402;6.608;2023-05-29T00:49:41;9.44;88.51
80579;SHT31;69939;52.402;6.608;2023-05-29T00:52:09;9.34;88.83
80579;SHT31;69939;52.402;6.608;2023-05-29T00:54:43;9.24;89.33
80579;SHT31;69939;52.402;6.608;2023-05-29T00:57:12;9.26;89.23
80579;SHT31;69939;52.402;6.608;2023-05-29T00:59:41;9.30;88.99
80579;SHT31;69939;52.402;6.608;2023-05-29T01:02:10;9.27;89.06
80579;SHT31;69939;52.402;6.608;2023-05-29T01:04:38;9.23;89.29
80579;SHT31;69939;52.402;6.608;2023-05-29T01:07:05;9.19;89.57
80579;SHT31;69939;52.402;6.608;2023-05-29T01:09:32;9.16;89.42
80579;SHT31;69939;52.402;6.608;2023-05-29T01:12:16;9.15;89.57
80579;SHT31;69939;52.402;6.608;2023-05-29T01:15:02;9.08;89.91
80579;SHT31;69939;52.402;6.608;2023-05-29T01:17:43;9.05;89.88
80579;SHT31;69939;52.402;6.608;2023-05-29T01:20:26;9.02;89.86
80579;SHT31;69939;52.402;6.608;2023-05-29T01:23:14;8.98;90.28
80579;SHT31;69939;52.402;6.608;2023-05-29T01:26:06;8.95;90.04
80579;SHT31;69939;52.402;6.608;2023-05-29T01:29:04;8.92;90.21
80579;SHT31;69939;52.402;6.608;2023-05-29T01:31:34;8.92;90.17
80579;SHT31;69939;52.402;6.608;2023-05-29T01:34:03;8.86;90.32
80579;SHT31;69939;52.402;6.608;2023-05-29T01:36:30;8.79;90.72
80579;SHT31;69939;52.402;6.608;2023-05-29T01:38:58;8.82;90.45
80579;SHT31;69939;52.402;6.608;2023-05-29T01:41:26;8.82;90.56
80579;SHT31;69939;52.402;6.608;2023-05-29T01:43:56;8.81;90.47
80579;SHT31;69939;52.402;6.608;2023-05-29T01:46:26;8.79;90.42
80579;SHT31;69939;52.402;6.608;2023-05-29T01:48:53;8.76;90.51
80579;SHT31;69939;52.402;6.608;2023-05-29T01:51:21;8.72;90.64
80579;SHT31;69939;52.402;6.608;2023-05-29T01:53:48;8.67;90.65
80579;SHT31;69939;52.402;6.608;2023-05-29T01:56:15;8.69;90.66
80579;SHT31;69939;52.402;6.608;2023-05-29T01:58:42;8.68;90.82
80579;SHT31;69939;52.402;6.608;2023-05-29T02:01:09;8.62;91.04
80579;SHT31;69939;52.402;6.608;2023-05-29T02:03:38;8.65;90.60
80579;SHT31;69939;52.402;6.608;2023-05-29T02:06:05;8.69;90.60
80579;SHT31;69939;52.402;6.608;2023-05-29T02:08:32;8.65;90.40
80579;SHT31;69939;52.402;6.608;2023-05-29T02:10:59;8.62;90.82
80579;SHT31;69939;52.402;6.608;2023-05-29T02:13:25;8.62;90.44
80579;SHT31;69939;52.402;6.608;2023-05-29T02:15:52;8.62;90.37
80579;SHT31;69939;52.402;6.608;2023-05-29T02:18:19;8.64;90.16
80579;SHT31;69939;52.402;6.608;2023-05-29T02:20:47;8.57;90.26
80579;SHT31;69939;52.402;6.608;2023-05-29T02:23:13;8.55;90.31
80579;SHT31;69939;52.402;6.608;2023-05-29T02:25:47;8.50;90.60
80579;SHT31;69939;52.402;6.608;2023-05-29T02:28:14;8.48;90.53
80579;SHT31;69939;52.402;6.608;2023-05-29T02:30:41;8.50;90.35
80579;SHT31;69939;52.402;6.608;2023-05-29T02:33:07;8.45;90.53
80579;SHT31;69939;52.402;6.608;2023-05-29T02:35:34;8.47;90.42
80579;SHT31;69939;52.402;6.608;2023-05-29T02:38:02;8.45;90.41
80579;SHT31;69939;52.402;6.608;2023-05-29T02:40:29;8.45;90.34
80579;SHT31;69939;52.402;6.608;2023-05-29T02:42:56;8.44;90.39
80579;SHT31;69939;52.402;6.608;2023-05-29T02:45:22;8.43;90.33
80579;SHT31;69939;52.402;6.608;2023-05-29T02:47:49;8.43;90.40
80579;SHT31;69939;52.402;6.608;2023-05-29T02:50:16;8.48;90.02
80579;SHT31;69939;52.402;6.608;2023-05-29T02:52:42;8.45;89.96
80579;SHT31;69939;52.402;6.608;2023-05-29T02:55:13;8.45;89.85
80579;SHT31;69939;52.402;6.608;2023-05-29T02:57:40;8.45;90.04
80579;SHT31;69939;52.402;6.608;2023-05-29T03:00:08;8.36;90.55
80579;SHT31;69939;52.402;6.608;2023-05-29T03:02:36;8.41;90.07
80579;SHT31;69939;52.402;6.608;2023-05-29T03:05:03;8.34;90.70
80579;SHT31;69939;52.402;6.608;2023-05-29T03:07:30;8.33;90.24
80579;SHT31;69939;52.402;6.608;2023-05-29T03:09:56;8.33;90.20
80579;SHT31;69939;52.402;6.608;2023-05-29T03:12:24;8.29;90.36
80579;SHT31;69939;52.402;6.608;2023-05-29T03:14:52;8.31;90.18
80579;SHT31;69939;52.402;6.608;2023-05-29T03:17:21;8.30;90.30
80579;SHT31;69939;52.402;6.608;2023-05-29T03:19:48;8.20;91.05
80579;SHT31;69939;52.402;6.608;2023-05-29T03:22:17;8.13;90.94
80579;SHT31;69939;52.402;6.608;2023-05-29T03:24:44;8.12;90.81
80579;SHT31;69939;52.402;6.608;2023-05-29T03:27:11;8.13;91.15
80579;SHT31;69939;52.402;6.608;2023-05-29T03:29:39;8.12;90.79
80579;SHT31;69939;52.402;6.608;2023-05-29T03:32:06;8.02;91.58
80579;SHT31;69939;52.402;6.608;2023-05-29T03:34:33;8.03;90.73
80579;SHT31;69939;52.402;6.608;2023-05-29T03:36:59;8.06;90.69
80579;SHT31;69939;52.402;6.608;2023-05-29T03:39:27;8.07;90.75
80579;SHT31;69939;52.402;6.608;2023-05-29T03:41:54;8.10;90.96
80579;SHT31;69939;52.402;6.608;2023-05-29T03:44:21;8.10;90.57
80579;SHT31;69939;52.402;6.608;2023-05-29T03:46:49;8.10;90.48
80579;SHT31;69939;52.402;6.608;2023-05-29T03:49:18;8.13;90.44
80579;SHT31;69939;52.402;6.608;2023-05-29T03:51:45;8.16;90.26
80579;SHT31;69939;52.402;6.608;2023-05-29T03:54:12;8.16;90.24
80579;SHT31;69939;52.402;6.608;2023-05-29T03:56:38;8.17;90.10
80579;SHT31;69939;52.402;6.608;2023-05-29T03:59:05;8.20;90.08
80579;SHT31;69939;52.402;6.608;2023-05-29T04:01:32;8.24;89.88
80579;SHT31;69939;52.402;6.608;2023-05-29T04:04:00;8.37;89.54
80579;SHT31;69939;52.402;6.608;2023-05-29T04:06:26;8.41;89.21
80579;SHT31;69939;52.402;6.608;2023-05-29T04:08:56;8.45;89.05
80579;SHT31;69939;52.402;6.608;2023-05-29T04:11:22;8.48;88.93
80579;SHT31;69939;52.402;6.608;2023-05-29T04:13:49;8.52;89.94
80579;SHT31;69939;52.402;6.608;2023-05-29T04:16:16;8.54;88.84
80579;SHT31;69939;52.402;6.608;2023-05-29T04:18:43;8.55;88.78
80579;SHT31;69939;52.402;6.608;2023-05-29T04:21:13;8.55;88.63
80579;SHT31;69939;52.402;6.608;2023-05-29T04:23:42;8.62;88.60
80579;SHT31;69939;52.402;6.608;2023-05-29T04:26:08;8.69;88.29
80579;SHT31;69939;52.402;6.608;2023-05-29T04:28:35;8.72;88.18
80579;SHT31;69939;52.402;6.608;2023-05-29T04:31:02;8.71;87.99
80579;SHT31;69939;52.402;6.608;2023-05-29T04:33:31;8.76;88.40
80579;SHT31;69939;52.402;6.608;2023-05-29T04:36:02;8.82;87.65
80579;SHT31;69939;52.402;6.608;2023-05-29T04:38:30;8.88;87.34
80579;SHT31;69939;52.402;6.608;2023-05-29T04:40:57;8.92;87.04
80579;SHT31;69939;52.402;6.608;2023-05-29T04:43:24;9.06;86.84
80579;SHT31;69939;52.402;6.608;2023-05-29T04:45:51;9.16;86.04
80579;SHT31;69939;52.402;6.608;2023-05-29T04:48:18;9.23;85.98
80579;SHT31;69939;52.402;6.608;2023-05-29T04:50:45;9.31;85.30
80579;SHT31;69939;52.402;6.608;2023-05-29T04:53:13;9.38;85.13
80579;SHT31;69939;52.402;6.608;2023-05-29T04:55:42;9.47;84.43
80579;SHT31;69939;52.402;6.608;2023-05-29T04:58:08;9.52;84.47
80579;SHT31;69939;52.402;6.608;2023-05-29T05:00:39;9.58;83.97
80579;SHT31;69939;52.402;6.608;2023-05-29T05:03:06;9.77;84.09
80579;SHT31;69939;52.402;6.608;2023-05-29T05:05:32;9.91;83.25
80579;SHT31;69939;52.402;6.608;2023-05-29T05:07:59;9.91;83.30
80579;SHT31;69939;52.402;6.608;2023-05-29T05:10:26;10.03;82.76
80579;SHT31;69939;52.402;6.608;2023-05-29T05:12:57;10.06;82.48
80579;SHT31;69939;52.402;6.608;2023-05-29T05:15:25;10.08;82.71
80579;SHT31;69939;52.402;6.608;2023-05-29T05:17:52;10.05;82.54
80579;SHT31;69939;52.402;6.608;2023-05-29T05:20:18;10.19;82.15
80579;SHT31;69939;52.402;6.608;2023-05-29T05:22:45;10.25;81.91
80579;SHT31;69939;52.402;6.608;2023-05-29T05:25:12;10.32;81.48
80579;SHT31;69939;52.402;6.608;2023-05-29T05:27:38;10.49;80.83
80579;SHT31;69939;52.402;6.608;2023-05-29T05:30:07;10.60;80.44
80579;SHT31;69939;52.402;6.608;2023-05-29T05:32:35;10.59;80.38
80579;SHT31;69939;52.402;6.608;2023-05-29T05:35:02;10.67;79.64
80579;SHT31;69939;52.402;6.608;2023-05-29T05:37:29;10.63;79.88
80579;SHT31;69939;52.402;6.608;2023-05-29T05:39:56;10.90;79.53
80579;SHT31;69939;52.402;6.608;2023-05-29T05:42:25;10.94;79.09
80579;SHT31;69939;52.402;6.608;2023-05-29T05:44:52;11.12;78.07
80579;SHT31;69939;52.402;6.608;2023-05-29T05:47:20;11.87;76.31
80579;SHT31;69939;52.402;6.608;2023-05-29T05:49:47;12.34;74.44
80579;SHT31;69939;52.402;6.608;2023-05-29T05:52:15;13.10;71.71
80579;SHT31;69939;52.402;6.608;2023-05-29T05:54:42;13.38;70.87
80579;SHT31;69939;52.402;6.608;2023-05-29T05:57:09;13.93;68.59
80579;SHT31;69939;52.402;6.608;2023-05-29T05:59:35;13.90;68.35
80579;SHT31;69939;52.402;6.608;2023-05-29T06:02:02;13.37;68.77
80579;SHT31;69939;52.402;6.608;2023-05-29T06:04:32;13.69;67.56
80579;SHT31;69939;52.402;6.608;2023-05-29T06:06:59;13.83;67.40
80579;SHT31;69939;52.402;6.608;2023-05-29T06:09:25;13.72;68.31
80579;SHT31;69939;52.402;6.608;2023-05-29T06:11:53;14.02;66.93
80579;SHT31;69939;52.402;6.608;2023-05-29T06:14:22;13.76;66.95
80579;SHT31;69939;52.402;6.608;2023-05-29T06:16:49;14.18;65.36
80579;SHT31;69939;52.402;6.608;2023-05-29T06:19:16;14.35;64.67
80579;SHT31;69939;52.402;6.608;2023-05-29T06:21:45;14.51;64.73
80579;SHT31;69939;52.402;6.608;2023-05-29T06:24:12;14.78;64.19
80579;SHT31;69939;52.402;6.608;2023-05-29T06:26:39;14.82;63.92
80579;SHT31;69939;52.402;6.608;2023-05-29T06:29:12;15.26;62.30
80579;SHT31;69939;52.402;6.608;2023-05-29T06:31:39;15.24;62.12
80579;SHT31;69939;52.402;6.608;2023-05-29T06:34:05;15.37;61.00
80579;SHT31;69939;52.402;6.608;2023-05-29T06:36:32;15.23;60.38
80579;SHT31;69939;52.402;6.608;2023-05-29T06:39:01;14.91;61.30
80579;SHT31;69939;52.402;6.608;2023-05-29T06:41:28;14.98;60.49
80579;SHT31;69939;52.402;6.608;2023-05-29T06:43:55;14.99;60.78
80579;SHT31;69939;52.402;6.608;2023-05-29T06:46:21;15.14;60.12
80579;SHT31;69939;52.402;6.608;2023-05-29T06:48:48;15.13;60.08
80579;SHT31;69939;52.402;6.608;2023-05-29T06:51:17;15.03;60.42
80579;SHT31;69939;52.402;6.608;2023-05-29T06:53:46;15.27;59.69
80579;SHT31;69939;52.402;6.608;2023-05-29T06:56:14;15.55;60.54
80579;SHT31;69939;52.402;6.608;2023-05-29T06:58:41;15.24;59.31
80579;SHT31;69939;52.402;6.608;2023-05-29T07:01:08;15.50;59.23
80579;SHT31;69939;52.402;6.608;2023-05-29T07:03:34;15.71;58.58
80579;SHT31;69939;52.402;6.608;2023-05-29T07:06:05;16.33;58.24
80579;SHT31;69939;52.402;6.608;2023-05-29T07:08:32;15.67;59.41
80579;SHT31;69939;52.402;6.608;2023-05-29T07:11:02;16.33;56.54
80579;SHT31;69939;52.402;6.608;2023-05-29T07:13:31;16.73;56.19
80579;SHT31;69939;52.402;6.608;2023-05-29T07:15:58;15.88;57.90
80579;SHT31;69939;52.402;6.608;2023-05-29T07:18:24;15.65;57.94
80579;SHT31;69939;52.402;6.608;2023-05-29T07:20:51;15.84;58.04
80579;SHT31;69939;52.402;6.608;2023-05-29T07:23:17;15.88;58.30
80579;SHT31;69939;52.402;6.608;2023-05-29T07:25:47;16.34;58.53
80579;SHT31;69939;52.402;6.608;2023-05-29T07:28:15;16.71;56.20
80579;SHT31;69939;52.402;6.608;2023-05-29T07:30:46;17.39;54.99
80579;SHT31;69939;52.402;6.608;2023-05-29T07:33:13;17.11;54.39
80579;SHT31;69939;52.402;6.608;2023-05-29T07:35:41;16.98;55.04
80579;SHT31;69939;52.402;6.608;2023-05-29T07:38:08;17.09;54.14
80579;SHT31;69939;52.402;6.608;2023-05-29T07:40:35;17.45;54.16
80579;SHT31;69939;52.402;6.608;2023-05-29T07:43:02;17.42;53.55
80579;SHT31;69939;52.402;6.608;2023-05-29T07:45:29;16.94;54.77
80579;SHT31;69939;52.402;6.608;2023-05-29T07:47:57;17.59;54.44
80579;SHT31;69939;52.402;6.608;2023-05-29T07:50:24;16.95;56.21
80579;SHT31;69939;52.402;6.608;2023-05-29T07:52:54;17.30;55.22
80579;SHT31;69939;52.402;6.608;2023-05-29T07:55:22;17.36;55.28
80579;SHT31;69939;52.402;6.608;2023-05-29T07:57:49;17.02;55.69
80579;SHT31;69939;52.402;6.608;2023-05-29T08:00:16;16.94;55.23
80579;SHT31;69939;52.402;6.608;2023-05-29T08:02:42;16.26;55.27
80579;SHT31;69939;52.402;6.608;2023-05-29T08:05:13;16.57;54.60
80579;SHT31;69939;52.402;6.608;2023-05-29T08:07:40;16.54;54.51
80579;SHT31;69939;52.402;6.608;2023-05-29T08:10:09;16.32;54.92
80579;SHT31;69939;52.402;6.608;2023-05-29T08:12:36;16.87;54.63
80579;SHT31;69939;52.402;6.608;2023-05-29T08:15:03;17.26;53.77
80579;SHT31;69939;52.402;6.608;2023-05-29T08:17:30;17.22;52.80
80579;SHT31;69939;52.402;6.608;2023-05-29T08:19:57;17.26;54.85
80579;SHT31;69939;52.402;6.608;2023-05-29T08:22:29;16.94;54.13
80579;SHT31;69939;52.402;6.608;2023-05-29T08:24:56;17.62;54.63
80579;SHT31;69939;52.402;6.608;2023-05-29T08:27:22;17.26;53.35
80579;SHT31;69939;52.402;6.608;2023-05-29T08:29:49;17.88;52.72
80579;SHT31;69939;52.402;6.608;2023-05-29T08:32:16;18.02;53.41
80579;SHT31;69939;52.402;6.608;2023-05-29T08:34:43;18.77;51.08
80579;SHT31;69939;52.402;6.608;2023-05-29T08:37:10;19.04;51.97
80579;SHT31;69939;52.402;6.608;2023-05-29T08:39:39;17.22;53.88
80579;SHT31;69939;52.402;6.608;2023-05-29T08:42:07;16.81;55.03
80579;SHT31;69939;52.402;6.608;2023-05-29T08:44:40;17.23;53.36
80579;SHT31;69939;52.402;6.608;2023-05-29T08:47:07;17.35;53.79
80579;SHT31;69939;52.402;6.608;2023-05-29T08:49:40;17.65;53.14
80579;SHT31;69939;52.402;6.608;2023-05-29T08:52:10;18.34;52.76
80579;SHT31;69939;52.402;6.608;2023-05-29T08:54:43;18.34;50.75
80579;SHT31;69939;52.402;6.608;2023-05-29T08:57:12;18.05;51.81
80579;SHT31;69939;52.402;6.608;2023-05-29T08:59:42;18.08;50.27
80579;SHT31;69939;52.402;6.608;2023-05-29T09:02:14;17.71;51.68
80579;SHT31;69939;52.402;6.608;2023-05-29T09:04:43;17.46;52.54
80579;SHT31;69939;52.402;6.608;2023-05-29T09:07:11;17.57;51.55
80579;SHT31;69939;52.402;6.608;2023-05-29T09:09:39;17.80;52.73
80579;SHT31;69939;52.402;6.608;2023-05-29T09:12:08;17.91;53.29
80579;SHT31;69939;52.402;6.608;2023-05-29T09:14:36;17.69;51.57
80579;SHT31;69939;52.402;6.608;2023-05-29T09:17:05;17.84;51.99
80579;SHT31;69939;52.402;6.608;2023-05-29T09:19:33;17.63;51.97
80579;SHT31;69939;52.402;6.608;2023-05-29T09:22:02;18.74;52.26
80579;SHT31;69939;52.402;6.608;2023-05-29T09:24:30;18.79;51.41
80579;SHT31;69939;52.402;6.608;2023-05-29T09:26:59;17.88;52.17
80579;SHT31;69939;52.402;6.608;2023-05-29T09:29:30;17.56;51.36
80579;SHT31;69939;52.402;6.608;2023-05-29T09:31:58;17.05;53.02
80579;SHT31;69939;52.402;6.608;2023-05-29T09:34:26;18.14;51.48
80579;SHT31;69939;52.402;6.608;2023-05-29T09:37:01;18.26;50.25
80579;SHT31;69939;52.402;6.608;2023-05-29T09:39:33;18.63;48.97
80579;SHT31;69939;52.402;6.608;2023-05-29T09:42:00;18.24;50.25
80579;SHT31;69939;52.402;6.608;2023-05-29T09:44:30;17.91;51.52
80579;SHT31;69939;52.402;6.608;2023-05-29T09:46:58;18.31;49.70
80579;SHT31;69939;52.402;6.608;2023-05-29T09:49:26;18.56;50.08
80579;SHT31;69939;52.402;6.608;2023-05-29T09:51:56;19.35;48.10
80579;SHT31;69939;52.402;6.608;2023-05-29T09:54:27;19.18;49.21
80579;SHT31;69939;52.402;6.608;2023-05-29T09:56:58;18.57;49.00
80579;SHT31;69939;52.402;6.608;2023-05-29T09:59:33;18.80;48.85
80579;SHT31;69939;52.402;6.608;2023-05-29T10:02:03;19.22;46.73
80579;SHT31;69939;52.402;6.608;2023-05-29T10:04:33;20.25;47.80
80579;SHT31;69939;52.402;6.608;2023-05-29T10:07:05;18.91;47.10
80579;SHT31;69939;52.402;6.608;2023-05-29T10:09:38;19.35;46.91
80579;SHT31;69939;52.402;6.608;2023-05-29T10:12:11;19.56;46.79
80579;SHT31;69939;52.402;6.608;2023-05-29T10:14:42;19.35;46.41
80579;SHT31;69939;52.402;6.608;2023-05-29T10:17:15;18.53;48.18
80579;SHT31;69939;52.402;6.608;2023-05-29T10:19:45;18.72;49.16
80579;SHT31;69939;52.402;6.608;2023-05-29T10:22:16;18.87;48.52
80579;SHT31;69939;52.402;6.608;2023-05-29T10:24:48;18.66;47.67
80579;SHT31;69939;52.402;6.608;2023-05-29T10:27:16;18.87;47.33
80579;SHT31;69939;52.402;6.608;2023-05-29T10:29:49;19.34;46.60
80579;SHT31;69939;52.402;6.608;2023-05-29T10:32:23;19.03;47.21
80579;SHT31;69939;52.402;6.608;2023-05-29T10:35:00;19.07;47.51
80579;SHT31;69939;52.402;6.608;2023-05-29T10:37:37;18.36;52.56
80579;SHT31;69939;52.402;6.608;2023-05-29T10:40:10;19.11;49.16
80579;SHT31;69939;52.402;6.608;2023-05-29T10:42:46;19.12;47.34
80579;SHT31;69939;52.402;6.608;2023-05-29T10:45:49;18.72;49.65
80579;SHT31;69939;52.402;6.608;2023-05-29T10:48:40;19.70;46.67
80579;SHT31;69939;52.402;6.608;2023-05-29T10:51:33;19.29;47.10
80579;SHT31;69939;52.402;6.608;2023-05-29T10:54:06;18.96;46.89
80579;SHT31;69939;52.402;6.608;2023-05-29T10:56:33;19.47;48.86
80579;SHT31;69939;52.402;6.608;2023-05-29T10:59:00;19.10;47.36
80579;SHT31;69939;52.402;6.608;2023-05-29T11:01:29;18.53;48.15
80579;SHT31;69939;52.402;6.608;2023-05-29T11:04:25;18.99;49.38
80579;SHT31;69939;52.402;6.608;2023-05-29T11:06:55;19.12;47.81
80579;SHT31;69939;52.402;6.608;2023-05-29T11:09:27;19.59;48.12
80579;SHT31;69939;52.402;6.608;2023-05-29T11:12:12;18.87;46.03
80579;SHT31;69939;52.402;6.608;2023-05-29T11:14:45;19.69;45.57
80579;SHT31;69939;52.402;6.608;2023-05-29T11:17:30;19.06;47.15
80579;SHT31;69939;52.402;6.608;2023-05-29T11:20:01;19.69;46.44
80579;SHT31;69939;52.402;6.608;2023-05-29T11:22:43;19.11;46.91
80579;SHT31;69939;52.402;6.608;2023-05-29T11:25:22;19.51;46.78
80579;SHT31;69939;52.402;6.608;2023-05-29T11:27:50;20.37;45.55
80579;SHT31;69939;52.402;6.608;2023-05-29T11:30:17;19.06;45.37
80579;SHT31;69939;52.402;6.608;2023-05-29T11:32:46;19.51;45.06
80579;SHT31;69939;52.402;6.608;2023-05-29T11:35:15;19.73;46.24
80579;SHT31;69939;52.402;6.608;2023-05-29T11:37:45;19.76;43.78
80579;SHT31;69939;52.402;6.608;2023-05-29T11:40:13;19.93;45.12
80579;SHT31;69939;52.402;6.608;2023-05-29T11:42:41;20.92;48.46
80579;SHT31;69939;52.402;6.608;2023-05-29T11:45:14;20.30;42.95
80579;SHT31;69939;52.402;6.608;2023-05-29T11:47:53;20.86;46.61
80579;SHT31;69939;52.402;6.608;2023-05-29T11:50:22;20.85;45.28
80579;SHT31;69939;52.402;6.608;2023-05-29T11:52:50;21.22;47.34
80579;SHT31;69939;52.402;6.608;2023-05-29T11:55:18;20.62;44.16
80579;SHT31;69939;52.402;6.608;2023-05-29T11:57:47;20.31;44.72
80579;SHT31;69939;52.402;6.608;2023-05-29T12:00:18;20.59;44.46
80579;SHT31;69939;52.402;6.608;2023-05-29T12:02:48;20.51;46.89
80579;SHT31;69939;52.402;6.608;2023-05-29T12:05:17;19.35;48.87
80579;SHT31;69939;52.402;6.608;2023-05-29T12:07:48;20.25;46.50
80579;SHT31;69939;52.402;6.608;2023-05-29T12:10:17;21.16;45.17
80579;SHT31;69939;52.402;6.608;2023-05-29T12:12:50;20.88;44.84
80579;SHT31;69939;52.402;6.608;2023-05-29T12:15:18;21.68;43.68
80579;SHT31;69939;52.402;6.608;2023-05-29T12:17:47;20.75;45.90
80579;SHT31;69939;52.402;6.608;2023-05-29T12:20:16;21.27;45.49
80579;SHT31;69939;52.402;6.608;2023-05-29T12:22:47;20.38;45.21
80579;SHT31;69939;52.402;6.608;2023-05-29T12:25:16;20.51;45.98
80579;SHT31;69939;52.402;6.608;2023-05-29T12:27:46;20.72;44.88
80579;SHT31;69939;52.402;6.608;2023-05-29T12:30:19;19.22;46.18
80579;SHT31;69939;52.402;6.608;2023-05-29T12:32:48;20.04;47.59
80579;SHT31;69939;52.402;6.608;2023-05-29T12:35:20;19.86;47.30
80579;SHT31;69939;52.402;6.608;2023-05-29T12:37:49;20.23;45.18
80579;SHT31;69939;52.402;6.608;2023-05-29T12:40:22;19.80;47.91
80579;SHT31;69939;52.402;6.608;2023-05-29T12:42:54;20.55;44.46
80579;SHT31;69939;52.402;6.608;2023-05-29T12:45:25;20.18;45.91
80579;SHT31;69939;52.402;6.608;2023-05-29T12:47:54;20.45;44.44
80579;SHT31;69939;52.402;6.608;2023-05-29T12:50:24;20.73;43.67
80579;SHT31;69939;52.402;6.608;2023-05-29T12:52:59;20.95;44.27
80579;SHT31;69939;52.402;6.608;2023-05-29T12:55:28;20.92;44.90
80579;SHT31;69939;52.402;6.608;2023-05-29T12:57:55;21.37;44.07
80579;SHT31;69939;52.402;6.608;2023-05-29T13:00:23;21.36;42.40
80579;SHT31;69939;52.402;6.608;2023-05-29T13:02:50;21.48;44.36
80579;SHT31;69939;52.402;6.608;2023-05-29T13:05:18;20.21;44.86
80579;SHT31;69939;52.402;6.608;2023-05-29T13:07:50;21.91;44.67
80579;SHT31;69939;52.402;6.608;2023-05-29T13:10:17;22.88;40.66
80579;SHT31;69939;52.402;6.608;2023-05-29T13:12:46;22.15;42.03
80579;SHT31;69939;52.402;6.608;2023-05-29T13:15:19;20.81;45.33
80579;SHT31;69939;52.402;6.608;2023-05-29T13:17:46;21.59;43.08
80579;SHT31;69939;52.402;6.608;2023-05-29T13:20:13;21.54;46.53
80579;SHT31;69939;52.402;6.608;2023-05-29T13:22:43;22.13;43.47
80579;SHT31;69939;52.402;6.608;2023-05-29T13:25:14;21.31;42.79
80579;SHT31;69939;52.402;6.608;2023-05-29T13:27:44;21.24;43.11
80579;SHT31;69939;52.402;6.608;2023-05-29T13:30:14;21.55;44.99
80579;SHT31;69939;52.402;6.608;2023-05-29T13:32:42;22.28;42.35
80579;SHT31;69939;52.402;6.608;2023-05-29T13:35:09;22.53;43.61
80579;SHT31;69939;52.402;6.608;2023-05-29T13:37:36;21.59;44.00
80579;SHT31;69939;52.402;6.608;2023-05-29T13:40:04;21.91;43.34
80579;SHT31;69939;52.402;6.608;2023-05-29T13:42:35;21.09;43.87
80579;SHT31;69939;52.402;6.608;2023-05-29T13:45:03;21.30;43.08
80579;SHT31;69939;52.402;6.608;2023-05-29T13:47:31;22.64;40.55
80579;SHT31;69939;52.402;6.608;2023-05-29T13:49:58;22.59;40.47
80579;SHT31;69939;52.402;6.608;2023-05-29T13:52:25;22.05;41.41
80579;SHT31;69939;52.402;6.608;2023-05-29T13:54:52;21.43;41.55
80579;SHT31;69939;52.402;6.608;2023-05-29T13:57:19;22.08;40.25
80579;SHT31;69939;52.402;6.608;2023-05-29T13:59:47;23.28;38.18
80579;SHT31;69939;52.402;6.608;2023-05-29T14:02:13;21.99;39.03
80579;SHT31;69939;52.402;6.608;2023-05-29T14:04:43;21.92;39.57
80579;SHT31;69939;52.402;6.608;2023-05-29T14:07:11;21.47;41.41
80579;SHT31;69939;52.402;6.608;2023-05-29T14:09:38;21.14;41.84
80579;SHT31;69939;52.402;6.608;2023-05-29T14:12:06;21.03;41.25
80579;SHT31;69939;52.402;6.608;2023-05-29T14:14:33;21.75;40.28
80579;SHT31;69939;52.402;6.608;2023-05-29T14:17:02;20.98;41.56
80579;SHT31;69939;52.402;6.608;2023-05-29T14:19:30;20.99;41.95
80579;SHT31;69939;52.402;6.608;2023-05-29T14:21:57;21.58;41.18
80579;SHT31;69939;52.402;6.608;2023-05-29T14:24:25;21.59;41.97
80579;SHT31;69939;52.402;6.608;2023-05-29T14:26:52;21.16;43.07
80579;SHT31;69939;52.402;6.608;2023-05-29T14:29:19;20.67;41.80
80579;SHT31;69939;52.402;6.608;2023-05-29T14:31:46;21.51;40.53
80579;SHT31;69939;52.402;6.608;2023-05-29T14:34:16;21.89;40.74
80579;SHT31;69939;52.402;6.608;2023-05-29T14:36:43;21.00;42.92
80579;SHT31;69939;52.402;6.608;2023-05-29T14:39:11;20.54;42.76
80579;SHT31;69939;52.402;6.608;2023-05-29T14:41:39;21.75;43.98
80579;SHT31;69939;52.402;6.608;2023-05-29T14:44:06;21.57;44.60
80579;SHT31;69939;52.402;6.608;2023-05-29T14:46:32;21.06;42.96
80579;SHT31;69939;52.402;6.608;2023-05-29T14:49:00;21.27;44.94
80579;SHT31;69939;52.402;6.608;2023-05-29T14:51:29;21.11;41.70
80579;SHT31;69939;52.402;6.608;2023-05-29T14:53:55;20.98;40.76
80579;SHT31;69939;52.402;6.608;2023-05-29T14:56:24;20.95;41.68
80579;SHT31;69939;52.402;6.608;2023-05-29T14:58:52;20.92;43.16
80579;SHT31;69939;52.402;6.608;2023-05-29T15:01:18;20.91;42.44
80579;SHT31;69939;52.402;6.608;2023-05-29T15:03:45;21.53;41.68
80579;SHT31;69939;52.402;6.608;2023-05-29T15:06:12;22.01;41.87
80579;SHT31;69939;52.402;6.608;2023-05-29T15:08:41;21.07;42.48
80579;SHT31;69939;52.402;6.608;2023-05-29T15:11:08;21.34;41.96
80579;SHT31;69939;52.402;6.608;2023-05-29T15:13:37;22.29;40.94
80579;SHT31;69939;52.402;6.608;2023-05-29T15:16:05;21.98;40.39
80579;SHT31;69939;52.402;6.608;2023-05-29T15:18:32;21.36;41.15
80579;SHT31;69939;52.402;6.608;2023-05-29T15:20:59;21.71;41.21
80579;SHT31;69939;52.402;6.608;2023-05-29T15:23:26;21.18;41.04
80579;SHT31;69939;52.402;6.608;2023-05-29T15:25:54;20.88;42.03
80579;SHT31;69939;52.402;6.608;2023-05-29T15:28:22;21.73;41.21
80579;SHT31;69939;52.402;6.608;2023-05-29T15:30:49;20.83;41.93
80579;SHT31;69939;52.402;6.608;2023-05-29T15:33:16;20.85;42.14
80579;SHT31;69939;52.402;6.608;2023-05-29T15:35:45;20.78;41.66
80579;SHT31;69939;52.402;6.608;2023-05-29T15:38:12;21.20;41.87
80579;SHT31;69939;52.402;6.608;2023-05-29T15:40:38;20.91;41.99
80579;SHT31;69939;52.402;6.608;2023-05-29T15:43:08;20.92;42.36
80579;SHT31;69939;52.402;6.608;2023-05-29T15:45:35;20.98;42.41